createdAt,value
2023-05-01T04:00:32.222Z,5.62
2023-05-01T04:01:33.184Z,5.62
2023-05-01T04:02:33.220Z,5.62
2023-05-01T04:03:33.248Z,5.62
2023-05-01T04:04:33.242Z,5.62
2023-05-01T04:05:33.160Z,5.62
2023-05-01T04:06:33.218Z,5.62
2023-05-01T04:07:33.136Z,5.62
2023-05-01T04:08:33.145Z,5.62
2023-05-01T04:09:33.125Z,5.62
2023-05-01T04:10:33.116Z,5.62
2023-05-01T04:11:33.066Z,5.62
2023-05-01T04:12:33.078Z,5.62
2023-05-01T04:13:33.075Z,5.62
2023-05-01T04:14:33.091Z,11.25
2023-05-01T04:15:33.064Z,11.25
2023-05-01T04:16:33.152Z,11.25
2023-05-01T04:17:33.052Z,11.25
2023-05-01T04:18:33.051Z,11.25
2023-05-01T04:19:33.005Z,11.25
2023-05-01T04:20:32.996Z,11.25
2023-05-01T04:21:33.079Z,11.25
2023-05-01T04:22:32.976Z,11.25
2023-05-01T04:23:32.942Z,11.25
2023-05-01T04:24:32.934Z,11.25
2023-05-01T04:25:32.958Z,11.25
2023-05-01T04:26:32.933Z,11.25
2023-05-01T04:27:32.925Z,11.25
2023-05-01T04:28:32.893Z,11.25
2023-05-01T04:29:32.880Z,11.25
2023-05-01T04:30:32.888Z,11.25
2023-05-01T04:31:32.947Z,11.25
2023-05-01T04:32:32.913Z,11.25
2023-05-01T04:33:32.846Z,11.25
2023-05-01T04:34:32.824Z,11.25
2023-05-01T04:35:32.834Z,16.88
2023-05-01T04:36:32.997Z,16.88
2023-05-01T04:37:32.794Z,16.88
2023-05-01T04:38:32.784Z,16.88
2023-05-01T04:39:32.786Z,16.88
2023-05-01T04:40:32.771Z,16.88
2023-05-01T04:41:32.767Z,16.88
2023-05-01T04:42:32.767Z,16.88
2023-05-01T04:43:32.735Z,16.88
2023-05-01T04:44:32.723Z,16.88
2023-05-01T04:45:32.701Z,16.88
2023-05-01T04:46:32.749Z,16.88
2023-05-01T04:47:32.729Z,16.88
2023-05-01T04:48:32.666Z,16.88
2023-05-01T04:49:32.671Z,16.88
2023-05-01T04:50:32.651Z,16.88
2023-05-01T04:51:32.659Z,16.88
2023-05-01T04:52:32.636Z,16.88
2023-05-01T04:53:32.630Z,16.88
2023-05-01T04:54:32.609Z,16.88
2023-05-01T04:55:32.595Z,16.88
2023-05-01T04:56:32.595Z,16.88
2023-05-01T04:57:32.568Z,16.88
2023-05-01T04:58:32.563Z,16.88
2023-05-01T04:59:32.568Z,22.50
2023-05-01T05:00:32.539Z,22.50
2023-05-01T05:01:32.588Z,22.50
2023-05-01T05:02:32.582Z,22.50
2023-05-01T05:03:32.655Z,22.50
2023-05-01T05:04:32.511Z,22.50
2023-05-01T05:05:32.485Z,22.50
2023-05-01T05:06:32.499Z,22.50
2023-05-01T05:07:32.458Z,22.50
2023-05-01T05:08:32.536Z,22.50
2023-05-01T05:09:32.480Z,22.50
2023-05-01T05:10:32.443Z,22.50
2023-05-01T05:11:32.435Z,22.50
2023-05-01T05:12:32.409Z,22.50
2023-05-01T05:13:32.498Z,22.50
2023-05-01T05:14:32.429Z,22.50
2023-05-01T05:15:32.425Z,22.50
2023-05-01T05:16:32.509Z,22.50
2023-05-01T05:17:32.433Z,22.50
2023-05-01T05:18:32.366Z,28.12
2023-05-01T05:19:32.363Z,28.12
2023-05-01T05:20:32.385Z,28.12
2023-05-01T05:21:32.358Z,28.12
2023-05-01T05:22:32.307Z,28.12
2023-05-01T05:23:32.306Z,28.12
2023-05-01T05:24:32.280Z,28.12
2023-05-01T05:25:32.271Z,28.12
2023-05-01T05:26:32.286Z,28.12
2023-05-01T05:27:32.243Z,28.12
2023-05-01T05:28:32.321Z,28.12
2023-05-01T05:29:32.234Z,28.12
2023-05-01T05:30:32.236Z,28.12
2023-05-01T05:31:32.262Z,28.12
2023-05-01T05:32:32.273Z,33.75
2023-05-01T05:33:32.185Z,33.75
2023-05-01T05:34:32.882Z,33.75
2023-05-01T05:35:32.175Z,33.75
2023-05-01T05:36:32.168Z,33.75
2023-05-01T05:37:32.159Z,33.75
2023-05-01T05:38:32.129Z,33.75
2023-05-01T05:39:32.128Z,33.75
2023-05-01T05:40:32.114Z,33.75
2023-05-01T05:41:32.105Z,33.75
2023-05-01T05:42:32.121Z,33.75
2023-05-01T05:43:32.081Z,33.75
2023-05-01T05:44:32.065Z,33.75
2023-05-01T05:45:32.076Z,33.75
2023-05-01T05:46:32.083Z,39.38
2023-05-01T05:47:32.063Z,39.38
2023-05-01T05:48:32.050Z,39.38
2023-05-01T05:49:32.039Z,39.38
2023-05-01T05:50:32.012Z,39.38
2023-05-01T05:51:32.051Z,39.38
2023-05-01T05:52:32.025Z,39.38
2023-05-01T05:53:31.960Z,39.38
2023-05-01T05:54:31.987Z,39.38
2023-05-01T05:55:32.000Z,39.38
2023-05-01T05:56:31.956Z,39.38
2023-05-01T05:57:31.969Z,39.38
2023-05-01T05:58:31.951Z,39.38
2023-05-01T05:59:31.908Z,45.00
2023-05-01T06:00:31.959Z,45.00
2023-05-01T06:01:31.918Z,45.00
2023-05-01T06:02:32.018Z,45.00
2023-05-01T06:03:32.015Z,45.00
2023-05-01T06:04:31.847Z,45.00
2023-05-01T06:05:31.900Z,45.00
2023-05-01T06:06:31.863Z,45.00
2023-05-01T06:07:31.825Z,45.00
2023-05-01T06:08:31.816Z,45.00
2023-05-01T06:09:31.799Z,45.00
2023-05-01T06:10:31.778Z,45.00
2023-05-01T06:11:31.793Z,50.62
2023-05-01T06:12:31.802Z,50.62
2023-05-01T06:13:31.776Z,50.62
2023-05-01T06:14:31.757Z,50.62
2023-05-01T06:15:31.743Z,50.62
2023-05-01T06:16:31.782Z,50.62
2023-05-01T06:17:31.759Z,50.62
2023-05-01T06:18:31.802Z,50.62
2023-05-01T06:19:31.706Z,50.62
2023-05-01T06:20:31.707Z,50.62
2023-05-01T06:21:31.664Z,50.62
2023-05-01T06:22:31.719Z,50.62
2023-05-01T06:23:31.680Z,50.62
2023-05-01T06:24:31.634Z,50.62
2023-05-01T06:25:31.614Z,56.25
2023-05-01T06:26:31.618Z,56.25
2023-05-01T06:27:31.653Z,56.25
2023-05-01T06:28:31.593Z,56.25
2023-05-01T06:29:31.564Z,56.25
2023-05-01T06:30:31.565Z,56.25
2023-05-01T06:31:31.637Z,56.25
2023-05-01T06:32:31.643Z,56.25
2023-05-01T06:33:31.542Z,56.25
2023-05-01T06:34:31.545Z,56.25
2023-05-01T06:35:31.506Z,56.25
2023-05-01T06:36:31.538Z,56.25
2023-05-01T06:37:31.584Z,56.25
2023-05-01T06:38:31.486Z,56.25
2023-05-01T06:39:31.470Z,56.25
2023-05-01T06:40:31.463Z,56.25
2023-05-01T06:41:31.432Z,56.25
2023-05-01T06:42:31.456Z,56.25
2023-05-01T06:43:31.460Z,56.25
2023-05-01T06:44:32.798Z,61.88
2023-05-01T06:45:31.402Z,61.88
2023-05-01T06:46:31.452Z,61.88
2023-05-01T06:47:31.466Z,61.88
2023-05-01T06:48:31.418Z,61.88
2023-05-01T06:49:31.356Z,61.88
2023-05-01T06:50:31.377Z,67.50
2023-05-01T06:51:31.331Z,67.50
2023-05-01T06:52:31.310Z,67.50
2023-05-01T06:53:31.378Z,67.50
2023-05-01T06:54:31.313Z,61.88
2023-05-01T06:55:32.704Z,61.88
2023-05-01T06:56:31.290Z,61.88
2023-05-01T06:57:31.256Z,61.88
2023-05-01T06:58:31.265Z,61.88
2023-05-01T06:59:31.247Z,61.88
2023-05-01T07:00:31.291Z,67.50
2023-05-01T07:01:33.270Z,67.50
2023-05-01T07:02:31.332Z,73.12
2023-05-01T07:03:31.242Z,73.12
2023-05-01T07:04:31.218Z,78.75
2023-05-01T07:05:31.207Z,78.75
2023-05-01T07:06:31.208Z,78.75
2023-05-01T07:07:31.140Z,73.12
2023-05-01T07:08:31.170Z,73.12
2023-05-01T07:09:31.124Z,73.12
2023-05-01T07:10:31.143Z,73.12
2023-05-01T07:11:31.112Z,73.12
2023-05-01T07:12:31.095Z,78.75
2023-05-01T07:13:31.128Z,78.75
2023-05-01T07:14:31.067Z,78.75
2023-05-01T07:15:31.075Z,84.38
2023-05-01T07:16:31.151Z,90.00
2023-05-01T07:17:31.107Z,90.00
2023-05-01T07:18:31.078Z,90.00
2023-05-01T07:19:31.024Z,84.38
2023-05-01T07:20:31.096Z,90.00
2023-05-01T07:21:30.994Z,90.00
2023-05-01T07:22:31.019Z,90.00
2023-05-01T07:23:31.054Z,90.00
2023-05-01T07:24:30.952Z,90.00
2023-05-01T07:25:30.978Z,95.62
2023-05-01T07:26:30.930Z,95.62
2023-05-01T07:27:30.976Z,101.25
2023-05-01T07:28:30.930Z,112.50
2023-05-01T07:29:30.904Z,112.50
2023-05-01T07:30:30.905Z,112.50
2023-05-01T07:31:30.922Z,112.50
2023-05-01T07:32:30.925Z,112.50
2023-05-01T07:33:30.964Z,101.25
2023-05-01T07:34:30.863Z,95.62
2023-05-01T07:35:30.839Z,90.00
2023-05-01T07:36:30.840Z,90.00
2023-05-01T07:37:30.843Z,84.38
2023-05-01T07:38:30.852Z,84.38
2023-05-01T07:39:30.852Z,84.38
2023-05-01T07:40:30.789Z,78.75
2023-05-01T07:41:30.826Z,73.12
2023-05-01T07:42:30.792Z,73.12
2023-05-01T07:43:30.785Z,78.75
2023-05-01T07:44:30.765Z,73.12
2023-05-01T07:45:30.731Z,78.75
2023-05-01T07:46:30.718Z,78.75
2023-05-01T07:47:30.781Z,84.38
2023-05-01T07:48:30.695Z,90.00
2023-05-01T07:49:30.692Z,90.00
2023-05-01T07:50:30.689Z,90.00
2023-05-01T07:51:30.661Z,95.62
2023-05-01T07:52:30.671Z,95.62
2023-05-01T07:53:30.646Z,95.62
2023-05-01T07:54:30.655Z,95.62
2023-05-01T07:55:30.646Z,95.62
2023-05-01T07:56:31.331Z,90.00
2023-05-01T07:57:30.636Z,101.25
2023-05-01T07:58:30.617Z,101.25
2023-05-01T07:59:30.608Z,101.25
2023-05-01T08:00:30.653Z,106.88
2023-05-01T08:01:30.548Z,95.62
2023-05-01T08:02:30.711Z,101.25
2023-05-01T08:03:30.909Z,101.25
2023-05-01T08:04:30.656Z,101.25
2023-05-01T08:05:30.526Z,106.88
2023-05-01T08:06:30.550Z,95.62
2023-05-01T08:07:30.498Z,95.62
2023-05-01T08:08:30.467Z,84.38
2023-05-01T08:09:30.481Z,84.38
2023-05-01T08:10:30.485Z,95.62
2023-05-01T08:11:30.460Z,101.25
2023-05-01T08:12:30.434Z,106.88
2023-05-01T08:13:30.458Z,101.25
2023-05-01T08:14:30.448Z,95.62
2023-05-01T08:15:30.422Z,106.88
2023-05-01T08:16:30.461Z,112.50
2023-05-01T08:17:30.463Z,106.88
2023-05-01T08:18:30.455Z,106.88
2023-05-01T08:19:30.362Z,101.25
2023-05-01T08:20:30.418Z,84.38
2023-05-01T08:21:30.355Z,95.62
2023-05-01T08:22:30.324Z,101.25
2023-05-01T08:23:30.341Z,118.12
2023-05-01T08:24:30.311Z,95.62
2023-05-01T08:25:30.301Z,95.62
2023-05-01T08:26:30.314Z,73.12
2023-05-01T08:27:30.308Z,73.12
2023-05-01T08:28:30.363Z,73.12
2023-05-01T08:29:30.254Z,78.75
2023-05-01T08:30:30.234Z,90.00
2023-05-01T08:31:30.342Z,95.62
2023-05-01T08:32:30.381Z,90.00
2023-05-01T08:33:30.377Z,101.25
2023-05-01T08:34:30.193Z,101.25
2023-05-01T08:35:30.172Z,118.12
2023-05-01T08:36:30.180Z,118.12
2023-05-01T08:37:30.239Z,118.12
2023-05-01T08:38:30.142Z,123.75
2023-05-01T08:39:30.136Z,118.12
2023-05-01T08:40:30.129Z,123.75
2023-05-01T08:41:30.147Z,123.75
2023-05-01T08:42:32.247Z,123.75
2023-05-01T08:43:30.097Z,123.75
2023-05-01T08:44:30.132Z,123.75
2023-05-01T08:45:30.133Z,123.75
2023-05-01T08:46:30.102Z,118.12
2023-05-01T08:47:30.058Z,118.12
2023-05-01T08:48:30.048Z,118.12
2023-05-01T08:49:30.032Z,118.12
2023-05-01T08:50:30.010Z,118.12
2023-05-01T08:51:30.126Z,118.12
2023-05-01T08:52:30.020Z,123.75
2023-05-01T08:53:30.024Z,118.12
2023-05-01T08:54:29.984Z,118.12
2023-05-01T08:55:29.979Z,112.50
2023-05-01T08:56:29.967Z,112.50
2023-05-01T08:57:29.949Z,118.12
2023-05-01T08:58:29.998Z,123.75
2023-05-01T08:59:29.922Z,123.75
2023-05-01T09:00:29.946Z,123.75
2023-05-01T09:01:29.939Z,123.75
2023-05-01T09:02:29.939Z,123.75
2023-05-01T09:03:29.945Z,123.75
2023-05-01T09:04:29.871Z,123.75
2023-05-01T09:05:29.853Z,123.75
2023-05-01T09:06:29.915Z,123.75
2023-05-01T09:07:29.825Z,123.75
2023-05-01T09:08:29.837Z,123.75
2023-05-01T09:09:29.860Z,129.38
2023-05-01T09:10:31.772Z,123.75
2023-05-01T09:11:29.780Z,123.75
2023-05-01T09:12:29.811Z,123.75
2023-05-01T09:13:29.789Z,129.38
2023-05-01T09:14:29.753Z,135.00
2023-05-01T09:15:29.752Z,146.25
2023-05-01T09:16:29.796Z,146.25
2023-05-01T09:17:29.768Z,146.25
2023-05-01T09:18:29.726Z,140.62
2023-05-01T09:19:29.697Z,146.25
2023-05-01T09:20:29.673Z,146.25
2023-05-01T09:21:29.667Z,146.25
2023-05-01T09:22:29.669Z,146.25
2023-05-01T09:23:29.679Z,146.25
2023-05-01T09:24:29.674Z,146.25
2023-05-01T09:25:29.624Z,140.62
2023-05-01T09:26:29.698Z,146.25
2023-05-01T09:27:29.624Z,146.25
2023-05-01T09:28:29.607Z,151.88
2023-05-01T09:29:29.605Z,151.88
2023-05-01T09:30:29.590Z,151.88
2023-05-01T09:31:29.572Z,151.88
2023-05-01T09:32:29.677Z,151.88
2023-05-01T09:33:29.532Z,151.88
2023-05-01T09:34:29.531Z,151.88
2023-05-01T09:35:29.529Z,151.88
2023-05-01T09:36:29.643Z,146.25
2023-05-01T09:37:29.501Z,151.88
2023-05-01T09:38:29.527Z,146.25
2023-05-01T09:39:29.479Z,146.25
2023-05-01T09:40:29.463Z,146.25
2023-05-01T09:41:29.444Z,151.88
2023-05-01T09:42:29.440Z,146.25
2023-05-01T09:43:29.445Z,151.88
2023-05-01T09:44:29.420Z,151.88
2023-05-01T09:45:29.414Z,146.25
2023-05-01T09:46:29.528Z,151.88
2023-05-01T09:47:29.444Z,157.50
2023-05-01T09:48:29.371Z,157.50
2023-05-01T09:49:29.434Z,157.50
2023-05-01T09:50:29.347Z,157.50
2023-05-01T09:51:29.392Z,151.88
2023-05-01T09:52:29.313Z,151.88
2023-05-01T09:53:29.341Z,151.88
2023-05-01T09:54:29.321Z,151.88
2023-05-01T09:55:29.290Z,151.88
2023-05-01T09:56:29.286Z,146.25
2023-05-01T09:57:29.287Z,151.88
2023-05-01T09:58:29.371Z,151.88
2023-05-01T09:59:29.262Z,151.88
2023-05-01T10:00:29.238Z,157.50
2023-05-01T10:01:29.423Z,157.50
2023-05-01T10:02:29.265Z,151.88
2023-05-01T10:03:29.360Z,163.12
2023-05-01T10:04:29.282Z,163.12
2023-05-01T10:05:29.249Z,168.75
2023-05-01T10:06:29.238Z,168.75
2023-05-01T10:07:29.161Z,168.75
2023-05-01T10:08:29.142Z,168.75
2023-05-01T10:09:29.176Z,168.75
2023-05-01T10:10:29.140Z,163.12
2023-05-01T10:11:29.122Z,168.75
2023-05-01T10:12:29.120Z,168.75
2023-05-01T10:13:29.093Z,168.75
2023-05-01T10:14:29.094Z,168.75
2023-05-01T10:15:29.097Z,163.12
2023-05-01T10:16:29.069Z,174.38
2023-05-01T10:17:29.103Z,168.75
2023-05-01T10:18:29.058Z,168.75
2023-05-01T10:19:29.021Z,174.38
2023-05-01T10:20:29.043Z,174.38
2023-05-01T10:21:29.039Z,174.38
2023-05-01T10:22:29.109Z,174.38
2023-05-01T10:23:29.006Z,168.75
2023-05-01T10:24:28.966Z,174.38
2023-05-01T10:25:29.006Z,174.38
2023-05-01T10:26:28.940Z,163.12
2023-05-01T10:27:28.942Z,185.62
2023-05-01T10:28:28.945Z,185.62
2023-05-01T10:29:28.956Z,168.75
2023-05-01T10:30:28.934Z,180.00
2023-05-01T10:31:29.064Z,185.62
2023-05-01T10:32:28.950Z,185.62
2023-05-01T10:33:28.907Z,180.00
2023-05-01T10:34:28.959Z,180.00
2023-05-01T10:35:28.847Z,174.38
2023-05-01T10:36:28.881Z,185.62
2023-05-01T10:37:28.878Z,185.62
2023-05-01T10:38:28.874Z,185.62
2023-05-01T10:39:28.814Z,185.62
2023-05-01T10:40:28.890Z,180.00
2023-05-01T10:41:28.819Z,168.75
2023-05-01T10:42:28.815Z,174.38
2023-05-01T10:43:28.775Z,174.38
2023-05-01T10:44:28.746Z,180.00
2023-05-01T10:45:28.773Z,185.62
2023-05-01T10:46:28.741Z,185.62
2023-05-01T10:47:28.897Z,185.62
2023-05-01T10:48:28.705Z,185.62
2023-05-01T10:49:28.852Z,185.62
2023-05-01T10:50:28.663Z,191.25
2023-05-01T10:51:28.701Z,185.62
2023-05-01T10:52:28.644Z,196.88
2023-05-01T10:53:28.668Z,196.88
2023-05-01T10:54:28.659Z,196.88
2023-05-01T10:55:28.645Z,208.12
2023-05-01T10:56:28.612Z,208.12
2023-05-01T10:57:28.622Z,213.75
2023-05-01T10:58:28.615Z,219.38
2023-05-01T10:59:28.829Z,225.00
2023-05-01T11:00:28.600Z,213.75
2023-05-01T11:01:28.629Z,196.88
2023-05-01T11:02:28.592Z,180.00
2023-05-01T11:03:28.574Z,146.25
2023-05-01T11:04:28.536Z,140.62
2023-05-01T11:05:38.227Z,135.00
2023-05-01T11:06:28.755Z,140.62
2023-05-01T11:07:28.524Z,135.00
2023-05-01T11:08:28.494Z,118.12
2023-05-01T11:09:28.544Z,118.12
2023-05-01T11:10:28.511Z,112.50
2023-05-01T11:11:28.444Z,118.12
2023-05-01T11:12:28.458Z,112.50
2023-05-01T11:13:28.454Z,112.50
2023-05-01T11:14:28.421Z,118.12
2023-05-01T11:15:28.485Z,129.38
2023-05-01T11:16:28.523Z,140.62
2023-05-01T11:17:28.458Z,151.88
2023-05-01T11:18:28.370Z,140.62
2023-05-01T11:19:29.424Z,129.38
2023-05-01T11:20:28.351Z,129.38
2023-05-01T11:21:28.385Z,123.75
2023-05-01T11:22:28.351Z,123.75
2023-05-01T11:23:28.326Z,123.75
2023-05-01T11:24:28.313Z,135.00
2023-05-01T11:25:28.307Z,135.00
2023-05-01T11:27:28.358Z,146.25
2023-05-01T11:28:28.292Z,146.25
2023-05-01T11:29:28.253Z,174.38
2023-05-01T11:30:28.235Z,168.75
2023-05-01T11:31:28.301Z,163.12
2023-05-01T11:32:28.258Z,123.75
2023-05-01T11:33:28.210Z,129.38
2023-05-01T11:34:28.255Z,146.25
2023-05-01T11:35:28.188Z,196.88
2023-05-01T11:36:28.236Z,151.88
2023-05-01T11:37:28.223Z,157.50
2023-05-01T11:38:28.150Z,163.12
2023-05-01T11:39:28.138Z,174.38
2023-05-01T11:40:28.176Z,174.38
2023-05-01T11:41:28.138Z,208.12
2023-05-01T11:42:28.195Z,253.12
2023-05-01T11:43:28.112Z,208.12
2023-05-01T11:44:28.129Z,208.12
2023-05-01T11:45:28.118Z,219.38
2023-05-01T11:46:28.145Z,236.25
2023-05-01T11:47:28.114Z,247.50
2023-05-01T11:48:28.121Z,225.00
2023-05-01T11:49:28.046Z,213.75
2023-05-01T11:50:28.014Z,213.75
2023-05-01T11:51:28.155Z,213.75
2023-05-01T11:52:28.008Z,253.12
2023-05-01T11:53:27.973Z,270.00
2023-05-01T11:54:28.035Z,264.38
2023-05-01T11:55:28.029Z,258.75
2023-05-01T11:56:27.956Z,253.12
2023-05-01T11:57:28.006Z,258.75
2023-05-01T11:58:27.941Z,275.62
2023-05-01T11:59:27.953Z,241.88
2023-05-01T12:00:27.912Z,270.00
2023-05-01T12:01:27.942Z,270.00
2023-05-01T12:02:27.952Z,213.75
2023-05-01T12:03:28.082Z,191.25
2023-05-01T12:04:31.600Z,208.12
2023-05-01T12:05:27.929Z,230.62
2023-05-01T12:06:27.884Z,236.25
2023-05-01T12:07:27.823Z,230.62
2023-05-01T12:08:28.783Z,236.25
2023-05-01T12:09:27.923Z,258.75
2023-05-01T12:10:27.800Z,281.25
2023-05-01T12:11:27.835Z,281.25
2023-05-01T12:12:27.778Z,286.88
2023-05-01T12:13:27.853Z,292.50
2023-05-01T12:14:27.879Z,286.88
2023-05-01T12:15:27.888Z,264.38
2023-05-01T12:16:27.871Z,258.75
2023-05-01T12:17:27.767Z,253.12
2023-05-01T12:18:27.815Z,241.88
2023-05-01T12:19:27.745Z,236.25
2023-05-01T12:20:27.712Z,264.38
2023-05-01T12:21:27.749Z,270.00
2023-05-01T12:22:27.721Z,275.62
2023-05-01T12:23:27.645Z,286.88
2023-05-01T12:24:27.674Z,303.75
2023-05-01T12:25:27.660Z,298.12
2023-05-01T12:26:27.648Z,298.12
2023-05-01T12:27:27.595Z,281.25
2023-05-01T12:28:27.669Z,264.38
2023-05-01T12:29:27.589Z,241.88
2023-05-01T12:30:27.592Z,247.50
2023-05-01T12:31:27.616Z,230.62
2023-05-01T12:32:27.633Z,241.88
2023-05-01T12:33:27.571Z,247.50
2023-05-01T12:34:27.561Z,247.50
2023-05-01T12:35:27.634Z,236.25
2023-05-01T12:36:27.608Z,253.12
2023-05-01T12:37:27.529Z,236.25
2023-05-01T12:38:27.473Z,258.75
2023-05-01T12:39:27.486Z,258.75
2023-05-01T12:40:27.521Z,275.62
2023-05-01T12:41:27.501Z,270.00
2023-05-01T12:42:27.504Z,275.62
2023-05-01T12:43:27.430Z,298.12
2023-05-01T12:44:27.458Z,281.25
2023-05-01T12:45:27.446Z,286.88
2023-05-01T12:46:27.499Z,303.75
2023-05-01T12:47:27.388Z,337.50
2023-05-01T12:48:27.415Z,337.50
2023-05-01T12:49:27.373Z,320.62
2023-05-01T12:50:27.360Z,298.12
2023-05-01T12:51:27.385Z,298.12
2023-05-01T12:52:27.369Z,303.75
2023-05-01T12:53:28.351Z,270.00
2023-05-01T12:54:27.301Z,303.75
2023-05-01T12:55:27.314Z,393.75
2023-05-01T12:56:27.424Z,320.62
2023-05-01T12:57:27.304Z,405.00
2023-05-01T12:58:27.898Z,382.50
2023-05-01T12:59:27.264Z,388.12
2023-05-01T13:00:27.258Z,376.88
2023-05-01T13:01:27.357Z,348.75
2023-05-01T13:02:27.360Z,348.75
2023-05-01T13:03:27.324Z,399.38
2023-05-01T13:04:27.256Z,371.25
2023-05-01T13:05:27.251Z,365.62
2023-05-01T13:06:27.254Z,371.25
2023-05-01T13:07:27.193Z,382.50
2023-05-01T13:08:27.197Z,303.75
2023-05-01T13:09:27.222Z,315.00
2023-05-01T13:10:27.140Z,275.62
2023-05-01T13:11:27.135Z,281.25
2023-05-01T13:12:27.140Z,286.88
2023-05-01T13:13:27.126Z,348.75
2023-05-01T13:14:27.115Z,371.25
2023-05-01T13:15:27.172Z,399.38
2023-05-01T13:16:27.129Z,371.25
2023-05-01T13:17:27.122Z,416.25
2023-05-01T13:18:27.481Z,478.12
2023-05-01T13:19:27.074Z,427.50
2023-05-01T13:20:27.053Z,444.38
2023-05-01T13:21:27.137Z,444.38
2023-05-01T13:22:27.102Z,478.12
2023-05-01T13:23:27.032Z,478.12
2023-05-01T13:24:26.990Z,416.25
2023-05-01T13:25:27.036Z,427.50
2023-05-01T13:26:26.960Z,416.25
2023-05-01T13:27:26.961Z,433.12
2023-05-01T13:28:26.955Z,427.50
2023-05-01T13:29:26.955Z,399.38
2023-05-01T13:30:27.071Z,421.88
2023-05-01T13:31:27.044Z,438.75
2023-05-01T13:32:27.006Z,410.62
2023-05-01T13:33:26.878Z,354.38
2023-05-01T13:34:26.931Z,348.75
2023-05-01T13:35:26.934Z,433.12
2023-05-01T13:36:27.378Z,438.75
2023-05-01T13:37:26.851Z,523.12
2023-05-01T13:38:26.836Z,601.88
2023-05-01T13:39:26.930Z,652.50
2023-05-01T13:40:26.920Z,613.12
2023-05-01T13:41:26.800Z,658.12
2023-05-01T13:42:27.340Z,736.88
2023-05-01T13:43:26.799Z,720.00
2023-05-01T13:44:26.780Z,652.50
2023-05-01T13:45:26.854Z,641.25
2023-05-01T13:46:26.972Z,675.00
2023-05-01T13:47:27.003Z,691.88
2023-05-01T13:48:26.751Z,675.00
2023-05-01T13:49:26.753Z,669.38
2023-05-01T13:50:26.738Z,669.38
2023-05-01T13:51:26.724Z,708.75
2023-05-01T13:52:26.722Z,703.12
2023-05-01T13:53:26.690Z,686.25
2023-05-01T13:54:26.657Z,680.62
2023-05-01T13:55:26.655Z,725.62
2023-05-01T13:56:26.696Z,748.12
2023-05-01T13:57:26.744Z,697.50
2023-05-01T13:58:26.612Z,720.00
2023-05-01T13:59:26.595Z,714.38
2023-05-01T14:00:26.621Z,697.50
2023-05-01T14:01:26.619Z,663.75
2023-05-01T14:02:26.649Z,635.62
2023-05-01T14:03:26.606Z,691.88
2023-05-01T14:04:26.671Z,675.00
2023-05-01T14:05:26.558Z,630.00
2023-05-01T14:06:26.602Z,652.50
2023-05-01T14:07:26.542Z,680.62
2023-05-01T14:08:26.626Z,663.75
2023-05-01T14:09:26.488Z,641.25
2023-05-01T14:10:26.540Z,663.75
2023-05-01T14:11:26.531Z,708.75
2023-05-01T14:12:26.492Z,708.75
2023-05-01T14:13:26.648Z,725.62
2023-05-01T14:14:26.454Z,759.38
2023-05-01T14:15:26.591Z,815.62
2023-05-01T14:16:26.493Z,793.12
2023-05-01T14:17:26.495Z,742.50
2023-05-01T14:18:26.481Z,714.38
2023-05-01T14:19:26.432Z,776.25
2023-05-01T14:20:26.412Z,736.88
2023-05-01T14:21:26.378Z,680.62
2023-05-01T14:22:26.386Z,635.62
2023-05-01T14:23:26.452Z,669.38
2023-05-01T14:24:26.339Z,618.75
2023-05-01T14:25:26.993Z,669.38
2023-05-01T14:26:26.339Z,720.00
2023-05-01T14:27:26.340Z,686.25
2023-05-01T14:28:26.321Z,776.25
2023-05-01T14:29:26.354Z,781.88
2023-05-01T14:30:26.356Z,680.62
2023-05-01T14:31:26.308Z,573.75
2023-05-01T14:32:26.359Z,517.50
2023-05-01T14:33:26.301Z,483.75
2023-05-01T14:34:28.548Z,444.38
2023-05-01T14:35:26.253Z,472.50
2023-05-01T14:36:26.250Z,585.00
2023-05-01T14:37:26.268Z,540.00
2023-05-01T14:38:26.422Z,585.00
2023-05-01T14:39:26.195Z,596.25
2023-05-01T14:40:26.194Z,624.38
2023-05-01T14:41:26.262Z,675.00
2023-05-01T14:42:26.207Z,686.25
2023-05-01T14:43:26.170Z,596.25
2023-05-01T14:44:26.196Z,686.25
2023-05-01T14:45:26.155Z,697.50
2023-05-01T14:46:26.170Z,630.00
2023-05-01T14:47:26.251Z,551.25
2023-05-01T14:48:26.268Z,556.88
2023-05-01T14:49:26.100Z,646.88
2023-05-01T14:50:26.183Z,613.12
2023-05-01T14:51:26.096Z,590.62
2023-05-01T14:52:26.182Z,540.00
2023-05-01T14:53:26.078Z,556.88
2023-05-01T14:54:26.645Z,478.12
2023-05-01T14:55:26.198Z,455.62
2023-05-01T14:56:26.078Z,517.50
2023-05-01T14:57:26.955Z,523.12
2023-05-01T14:58:26.013Z,489.38
2023-05-01T14:59:26.041Z,500.62
2023-05-01T15:00:25.998Z,433.12
2023-05-01T15:01:26.061Z,472.50
2023-05-01T15:02:26.033Z,472.50
2023-05-01T15:03:26.022Z,483.75
2023-05-01T15:04:26.219Z,433.12
2023-05-01T15:05:26.003Z,416.25
2023-05-01T15:06:26.058Z,433.12
2023-05-01T15:07:25.955Z,365.62
2023-05-01T15:08:25.903Z,326.25
2023-05-01T15:09:25.898Z,326.25
2023-05-01T15:10:25.880Z,326.25
2023-05-01T15:11:25.892Z,343.12
2023-05-01T15:12:25.876Z,348.75
2023-05-01T15:13:25.875Z,315.00
2023-05-01T15:14:25.858Z,292.50
2023-05-01T15:15:25.869Z,247.50
2023-05-01T15:16:25.901Z,219.38
2023-05-01T15:17:25.870Z,202.50
2023-05-01T15:18:25.808Z,185.62
2023-05-01T15:19:25.827Z,163.12
2023-05-01T15:20:25.786Z,163.12
2023-05-01T15:21:25.764Z,157.50
2023-05-01T15:22:25.774Z,135.00
2023-05-01T15:23:25.806Z,135.00
2023-05-01T15:24:25.756Z,135.00
2023-05-01T15:25:25.729Z,135.00
2023-05-01T15:26:25.716Z,135.00
2023-05-01T15:27:25.733Z,146.25
2023-05-01T15:28:25.725Z,163.12
2023-05-01T15:29:27.198Z,191.25
2023-05-01T15:30:25.709Z,191.25
2023-05-01T15:31:25.725Z,196.88
2023-05-01T15:32:25.715Z,230.62
2023-05-01T15:33:25.685Z,247.50
2023-05-01T15:34:25.670Z,253.12
2023-05-01T15:35:25.765Z,270.00
2023-05-01T15:36:25.631Z,270.00
2023-05-01T15:37:25.698Z,303.75
2023-05-01T15:38:25.609Z,309.38
2023-05-01T15:39:25.582Z,303.75
2023-05-01T15:40:25.591Z,309.38
2023-05-01T15:41:25.549Z,275.62
2023-05-01T15:42:25.547Z,247.50
2023-05-01T15:43:25.526Z,264.38
2023-05-01T15:44:25.550Z,270.00
2023-05-01T15:45:25.599Z,292.50
2023-05-01T15:46:25.544Z,275.62
2023-05-01T15:47:25.514Z,258.75
2023-05-01T15:48:25.475Z,247.50
2023-05-01T15:49:25.466Z,196.88
2023-05-01T15:50:25.453Z,191.25
2023-05-01T15:51:25.424Z,180.00
2023-05-01T15:52:25.467Z,151.88
2023-05-01T15:53:25.422Z,135.00
2023-05-01T15:54:25.430Z,135.00
2023-05-01T15:55:25.521Z,118.12
2023-05-01T15:56:25.413Z,123.75
2023-05-01T15:57:25.410Z,129.38
2023-05-01T15:58:25.355Z,135.00
2023-05-01T15:59:25.334Z,135.00
2023-05-01T16:00:25.376Z,123.75
2023-05-01T16:01:25.383Z,112.50
2023-05-01T16:02:25.533Z,106.88
2023-05-01T16:03:25.415Z,101.25
2023-05-01T16:04:25.355Z,106.88
2023-05-01T16:05:25.308Z,106.88
2023-05-01T16:06:25.357Z,95.62
2023-05-01T16:07:25.297Z,101.25
2023-05-01T16:08:25.220Z,112.50
2023-05-01T16:09:25.273Z,112.50
2023-05-01T16:10:25.322Z,106.88
2023-05-01T16:11:25.223Z,106.88
2023-05-01T16:12:25.195Z,106.88
2023-05-01T16:13:25.180Z,106.88
2023-05-01T16:14:25.165Z,101.25
2023-05-01T16:15:25.207Z,90.00
2023-05-01T16:16:25.204Z,90.00
2023-05-01T16:17:25.177Z,84.38
2023-05-01T16:18:25.161Z,90.00
2023-05-01T16:19:25.145Z,90.00
2023-05-01T16:20:25.133Z,90.00
2023-05-01T16:21:25.173Z,90.00
2023-05-01T16:22:25.074Z,90.00
2023-05-01T16:23:25.066Z,95.62
2023-05-01T16:24:25.072Z,90.00
2023-05-01T16:25:25.095Z,95.62
2023-05-01T16:26:27.383Z,106.88
2023-05-01T16:27:25.026Z,101.25
2023-05-01T16:28:25.046Z,106.88
2023-05-01T16:29:25.033Z,101.25
2023-05-01T16:30:24.993Z,101.25
2023-05-01T16:31:27.683Z,106.88
2023-05-01T16:32:25.101Z,101.25
2023-05-01T16:33:24.999Z,95.62
2023-05-01T16:34:24.987Z,95.62
2023-05-01T16:35:24.938Z,101.25
2023-05-01T16:36:25.062Z,95.62
2023-05-01T16:37:24.916Z,90.00
2023-05-01T16:38:24.888Z,95.62